createdAt,value
2018-04-13T00:00:11.389Z,3.30
2018-04-13T00:01:11.598Z,3.90
2018-04-13T00:02:11.817Z,4.00
2018-04-13T00:03:12.019Z,5.30
2018-04-13T00:04:12.233Z,4.70
2018-04-13T00:05:12.452Z,3.70
2018-04-13T00:06:12.658Z,3.90
2018-04-13T00:07:12.875Z,3.80
2018-04-13T00:08:13.073Z,3.50
2018-04-13T00:09:13.278Z,4.20
2018-04-13T00:10:13.498Z,2.90
2018-04-13T00:11:13.711Z,4.50
2018-04-13T00:12:13.929Z,3.10
2018-04-13T00:13:14.139Z,3.30
2018-04-13T00:14:14.349Z,4.90
2018-04-13T00:15:14.565Z,3.80
2018-04-13T00:16:14.783Z,3.90
2018-04-13T00:17:14.988Z,3.00
2018-04-13T00:18:15.205Z,3.40
2018-04-13T00:19:15.409Z,4.00
2018-04-13T00:20:17.550Z,3.50
2018-04-13T00:21:15.755Z,4.10
2018-04-13T00:22:15.965Z,3.80
2018-04-13T00:23:16.177Z,4.00
2018-04-13T00:24:16.412Z,3.00
2018-04-13T00:25:18.033Z,2.80
2018-04-13T00:26:16.740Z,1.90
2018-04-13T00:27:16.945Z,2.90
2018-04-13T00:28:17.165Z,3.30
2018-04-13T00:29:17.369Z,3.20
2018-04-13T00:30:17.576Z,3.80
2018-04-13T00:31:17.792Z,5.00
2018-04-13T00:32:18.004Z,3.30
2018-04-13T00:33:18.220Z,4.00
2018-04-13T00:34:18.451Z,3.70
2018-04-13T00:35:18.651Z,2.60
2018-04-13T00:36:18.874Z,3.10
2018-04-13T00:37:19.093Z,4.90
2018-04-13T00:38:19.298Z,2.20
2018-04-13T00:39:19.513Z,3.30
2018-04-13T00:40:23.527Z,4.00
2018-04-13T00:41:19.867Z,4.30
2018-04-13T00:42:20.080Z,4.80
2018-04-13T00:43:24.035Z,4.00
2018-04-13T00:44:20.497Z,4.30
2018-04-13T00:45:20.710Z,4.60
2018-04-13T00:46:20.917Z,3.80
2018-04-13T00:47:21.130Z,5.60
2018-04-13T00:48:21.332Z,3.80
2018-04-13T00:49:21.538Z,3.70
2018-04-13T00:50:21.748Z,3.00
2018-04-13T00:51:21.954Z,4.40
2018-04-13T00:52:22.170Z,3.00
2018-04-13T00:53:22.396Z,3.20
2018-04-13T00:54:22.603Z,5.50
2018-04-13T00:55:22.823Z,2.60
2018-04-13T00:56:23.028Z,3.40
2018-04-13T00:57:23.255Z,2.90
2018-04-13T00:58:23.451Z,3.90
2018-04-13T00:59:25.535Z,4.30
2018-04-13T01:00:23.871Z,5.50
2018-04-13T01:01:24.084Z,4.30
2018-04-13T01:02:24.288Z,3.60
2018-04-13T01:03:24.538Z,3.90
2018-04-13T01:04:28.529Z,4.20
2018-04-13T01:05:24.871Z,4.40
2018-04-13T01:06:25.085Z,4.50
2018-04-13T01:07:25.295Z,3.70
2018-04-13T01:08:25.520Z,3.60
2018-04-13T01:09:25.746Z,3.10
2018-04-13T01:10:25.951Z,2.70
2018-04-13T01:11:26.202Z,4.80
2018-04-13T01:12:26.405Z,3.90
2018-04-13T01:13:26.612Z,4.30
2018-04-13T01:14:26.825Z,3.20
2018-04-13T01:15:28.539Z,3.30
2018-04-13T01:16:27.238Z,6.00
2018-04-13T01:17:27.455Z,5.60
2018-04-13T01:18:27.675Z,6.60
2018-04-13T01:19:27.891Z,4.10
2018-04-13T01:20:28.090Z,3.30
2018-04-13T01:21:28.299Z,4.00
2018-04-13T01:22:28.512Z,5.40
2018-04-13T01:23:28.725Z,4.80
2018-04-13T01:24:30.535Z,4.90
2018-04-13T01:25:29.118Z,5.60
2018-04-13T01:26:29.316Z,4.60
2018-04-13T01:27:29.571Z,5.00
2018-04-13T01:28:29.734Z,4.70
2018-04-13T01:29:29.949Z,3.40
2018-04-13T01:30:30.155Z,4.10
2018-04-13T01:31:30.359Z,4.10
2018-04-13T01:32:30.579Z,4.40
2018-04-13T01:33:32.531Z,5.20
2018-04-13T01:34:31.007Z,5.40
2018-04-13T01:35:31.221Z,3.80
2018-04-13T01:36:31.420Z,5.50
2018-04-13T01:37:31.625Z,3.60
2018-04-13T01:38:31.845Z,3.60
2018-04-13T01:39:32.054Z,3.50
2018-04-13T01:40:32.255Z,5.00
2018-04-13T01:41:32.470Z,4.40
2018-04-13T01:42:32.674Z,4.00
2018-04-13T01:43:32.890Z,4.40
2018-04-13T01:44:33.102Z,5.80
2018-04-13T01:45:33.339Z,5.50
2018-04-13T01:46:35.036Z,4.20
2018-04-13T01:47:33.734Z,4.80
2018-04-13T01:48:33.957Z,4.00
2018-04-13T01:49:34.173Z,5.10
2018-04-13T01:50:34.395Z,4.40
2018-04-13T01:51:34.611Z,5.50
2018-04-13T01:52:34.820Z,4.30
2018-04-13T01:53:36.535Z,4.20
2018-04-13T01:54:35.249Z,5.00
2018-04-13T01:55:35.455Z,5.30
2018-04-13T01:56:35.673Z,3.50
2018-04-13T01:57:37.535Z,4.70
2018-04-13T01:58:35.995Z,4.50
2018-04-13T01:59:36.217Z,4.60
2018-04-13T02:00:36.413Z,5.40
2018-04-13T02:01:36.616Z,5.10
2018-04-13T02:02:36.828Z,5.00
2018-04-13T02:03:37.041Z,6.30
2018-04-13T02:04:37.263Z,6.10
2018-04-13T02:05:37.475Z,5.20
2018-04-13T02:06:37.680Z,6.10
2018-04-13T02:07:37.900Z,5.00
2018-04-13T02:08:38.104Z,4.50
2018-04-13T02:09:38.324Z,5.60
2018-04-13T02:10:38.548Z,5.30
2018-04-13T02:11:38.759Z,5.30
2018-04-13T02:12:38.973Z,3.80
2018-04-13T02:13:39.183Z,6.50
2018-04-13T02:14:39.393Z,4.20
2018-04-13T02:15:39.628Z,5.60
2018-04-13T02:16:39.818Z,4.90
2018-04-13T02:17:40.028Z,8.10
2018-04-13T02:18:40.261Z,5.20
2018-04-13T02:19:40.470Z,3.80
2018-04-13T02:20:40.682Z,5.00
2018-04-13T02:21:40.897Z,6.30
2018-04-13T02:22:41.112Z,6.60
2018-04-13T02:23:43.029Z,3.40
2018-04-13T02:24:41.489Z,3.90
2018-04-13T02:25:41.694Z,4.60
2018-04-13T02:26:41.915Z,4.50
2018-04-13T02:27:42.126Z,3.90
2018-04-13T02:28:43.279Z,3.80
2018-04-13T02:29:44.031Z,5.10
2018-04-13T02:30:42.624Z,5.50
2018-04-13T02:31:42.836Z,4.00
2018-04-13T02:32:43.057Z,3.50
2018-04-13T02:33:43.281Z,4.80
2018-04-13T02:34:45.038Z,3.10
2018-04-13T02:35:43.618Z,4.90
2018-04-13T02:36:43.827Z,5.30
2018-04-13T02:37:44.038Z,4.70
2018-04-13T02:38:44.243Z,3.40
2018-04-13T02:39:44.459Z,4.40
2018-04-13T02:40:44.678Z,4.30
2018-04-13T02:41:44.887Z,3.70
2018-04-13T02:42:45.090Z,4.30
2018-04-13T02:43:45.310Z,3.80
2018-04-13T02:44:45.508Z,4.60
2018-04-13T02:45:45.726Z,5.90
2018-04-13T02:46:45.941Z,6.00
2018-04-13T02:47:46.147Z,3.30
2018-04-13T02:48:48.030Z,3.60
2018-04-13T02:49:46.481Z,4.70
2018-04-13T02:50:50.568Z,5.10
2018-04-13T02:51:46.901Z,5.20
2018-04-13T02:52:47.107Z,4.50
2018-04-13T02:53:50.049Z,3.90
2018-04-13T02:54:47.521Z,4.90
2018-04-13T02:55:47.732Z,3.50
2018-04-13T02:56:47.937Z,4.00
2018-04-13T02:57:48.159Z,4.90
2018-04-13T02:58:50.033Z,3.60
2018-04-13T02:59:48.483Z,6.90
2018-04-13T03:00:48.693Z,4.10
2018-04-13T03:01:48.904Z,4.50
2018-04-13T03:02:49.120Z,3.70
2018-04-13T03:03:49.336Z,5.20
2018-04-13T03:04:49.549Z,5.00
2018-04-13T03:05:49.759Z,6.10
2018-04-13T03:06:49.966Z,4.70
2018-04-13T03:07:50.182Z,4.80
2018-04-13T03:08:50.390Z,5.20
2018-04-13T03:09:53.561Z,4.90
2018-04-13T03:10:50.772Z,5.40
2018-04-13T03:11:50.980Z,4.20
2018-04-13T03:12:51.190Z,5.90
2018-04-13T03:13:51.405Z,5.50
2018-04-13T03:14:51.638Z,3.50
2018-04-13T03:15:53.560Z,6.10
2018-04-13T03:16:52.026Z,4.30
2018-04-13T03:17:52.262Z,4.90
2018-04-13T03:18:52.462Z,3.40
2018-04-13T03:19:52.680Z,6.10
2018-04-13T03:20:52.885Z,5.90
2018-04-13T03:21:53.123Z,5.70
2018-04-13T03:22:53.239Z,7.20
2018-04-13T03:23:53.447Z,7.20
2018-04-13T03:24:53.668Z,7.50
2018-04-13T03:25:53.878Z,7.10
2018-04-13T03:26:54.099Z,8.30
2018-04-13T03:27:54.298Z,8.30
2018-04-13T03:28:56.085Z,6.30
2018-04-13T03:29:54.645Z,6.80
2018-04-13T03:30:54.866Z,6.60
2018-04-13T03:31:58.041Z,7.80
2018-04-13T03:32:55.252Z,7.60
2018-04-13T03:33:55.464Z,8.30
2018-04-13T03:34:55.672Z,10.00
2018-04-13T03:35:55.891Z,8.50
2018-04-13T03:36:56.111Z,8.10
2018-04-13T03:37:56.322Z,8.60
2018-04-13T03:38:56.533Z,7.60
2018-04-13T03:39:56.729Z,8.60
2018-04-13T03:40:56.968Z,10.20
2018-04-13T03:41:59.031Z,8.90
2018-04-13T03:42:59.739Z,10.30
2018-04-13T03:43:57.502Z,11.50
2018-04-13T03:44:57.638Z,9.00
2018-04-13T03:45:59.538Z,9.20
2018-04-13T03:46:58.007Z,8.70
2018-04-13T03:48:00.031Z,9.00
2018-04-13T03:48:58.390Z,9.20
2018-04-13T03:50:00.543Z,7.90
2018-04-13T03:51:00.534Z,9.90
2018-04-13T03:51:58.880Z,7.40
2018-04-13T03:52:59.096Z,7.20
2018-04-13T03:53:59.341Z,5.80
2018-04-13T03:54:59.554Z,7.00
2018-04-13T03:55:59.779Z,6.40
2018-04-13T03:56:59.996Z,9.10
2018-04-13T03:58:00.203Z,7.70
2018-04-13T03:59:00.423Z,6.80
2018-04-13T04:00:02.534Z,11.70
2018-04-13T04:01:00.743Z,12.10
2018-04-13T04:02:00.960Z,11.30
2018-04-13T04:03:03.032Z,10.70
2018-04-13T04:04:01.366Z,10.60
2018-04-13T04:05:03.535Z,9.20
2018-04-13T04:06:03.533Z,10.10
2018-04-13T04:07:01.863Z,10.20
2018-04-13T04:08:04.051Z,10.90
2018-04-13T04:09:02.258Z,14.10
2018-04-13T04:10:02.473Z,10.90
2018-04-13T04:11:02.740Z,11.20
2018-04-13T04:12:02.913Z,11.00
2018-04-13T04:13:03.124Z,7.90
2018-04-13T04:14:03.341Z,7.60
2018-04-13T04:15:03.568Z,9.40
2018-04-13T04:16:03.768Z,8.60
2018-04-13T04:17:04.013Z,10.90
2018-04-13T04:18:04.198Z,14.80
2018-04-13T04:19:04.420Z,18.00
2018-04-13T04:20:04.610Z,14.00
2018-04-13T04:21:04.829Z,15.90
2018-04-13T04:22:05.047Z,14.00
2018-04-13T04:23:05.254Z,14.00
2018-04-13T04:24:05.506Z,12.80
2018-04-13T04:25:05.717Z,11.20
2018-04-13T04:26:05.911Z,9.60
2018-04-13T04:27:06.129Z,10.00
2018-04-13T04:28:06.339Z,11.50
2018-04-13T04:29:06.548Z,9.90
2018-04-13T04:30:06.759Z,9.60
2018-04-13T04:31:08.533Z,11.00
2018-04-13T04:32:07.120Z,12.70
2018-04-13T04:33:10.054Z,12.30
2018-04-13T04:34:07.532Z,13.40
2018-04-13T04:35:07.730Z,9.80
2018-04-13T04:36:07.949Z,10.30
2018-04-13T04:37:08.161Z,10.20
2018-04-13T04:38:08.385Z,10.50
2018-04-13T04:39:08.608Z,9.50
2018-04-13T04:40:08.821Z,11.10
2018-04-13T04:41:10.537Z,9.60
2018-04-13T04:42:09.260Z,8.90
2018-04-13T04:43:09.462Z,9.00
2018-04-13T04:44:09.679Z,8.00
2018-04-13T04:45:09.888Z,9.00
2018-04-13T04:46:10.104Z,9.30
2018-04-13T04:47:10.312Z,8.80
2018-04-13T04:48:10.519Z,9.50
2018-04-13T04:49:10.733Z,8.70
2018-04-13T04:50:14.547Z,11.20
2018-04-13T04:51:17.035Z,8.90
2018-04-13T04:52:15.049Z,9.20
2018-04-13T04:53:13.041Z,10.10
2018-04-13T04:54:11.506Z,10.50
2018-04-13T04:55:14.537Z,10.50
2018-04-13T04:56:12.939Z,9.60
2018-04-13T04:57:12.039Z,9.50
2018-04-13T04:58:12.244Z,8.50
2018-04-13T04:59:12.451Z,7.60
2018-04-13T05:00:14.591Z,7.90
2018-04-13T05:01:12.892Z,8.90
2018-04-13T05:02:13.096Z,10.10
2018-04-13T05:03:13.318Z,10.60
2018-04-13T05:04:13.522Z,8.50
2018-04-13T05:05:13.725Z,7.80
2018-04-13T05:06:13.938Z,7.80
2018-04-13T05:07:14.146Z,7.20
2018-04-13T05:08:16.040Z,8.40
2018-04-13T05:09:14.502Z,8.80
2018-04-13T05:10:16.539Z,8.00
2018-04-13T05:11:14.874Z,7.40
2018-04-13T05:12:15.089Z,9.00
2018-04-13T05:13:15.303Z,8.70
2018-04-13T05:14:15.509Z,7.60
2018-04-13T05:15:15.720Z,7.00
2018-04-13T05:16:15.935Z,9.70
2018-04-13T05:17:16.149Z,7.10
2018-04-13T05:18:16.369Z,8.80
2018-04-13T05:19:16.586Z,7.50
2018-04-13T05:20:18.539Z,7.30
2018-04-13T05:21:20.544Z,7.10
2018-04-13T05:22:17.127Z,7.90
2018-04-13T05:23:21.060Z,6.30
2018-04-13T05:24:17.526Z,6.60
2018-04-13T05:25:17.738Z,7.30
2018-04-13T05:26:17.949Z,6.60
2018-04-13T05:27:18.171Z,8.30
2018-04-13T05:28:18.396Z,7.00
2018-04-13T05:29:22.554Z,7.40
2018-04-13T05:30:18.748Z,6.50
2018-04-13T05:31:18.964Z,5.20
2018-04-13T05:32:19.177Z,5.40
2018-04-13T05:33:19.394Z,6.40
2018-04-13T05:34:19.600Z,5.80
2018-04-13T05:35:19.837Z,5.80
2018-04-13T05:36:20.044Z,4.80
2018-04-13T05:37:20.229Z,6.90
2018-04-13T05:38:20.445Z,5.40
2018-04-13T05:39:20.661Z,6.00
2018-04-13T05:40:20.887Z,6.00
2018-04-13T05:41:21.097Z,7.30
2018-04-13T05:42:21.303Z,7.10
2018-04-13T05:43:21.527Z,9.50
2018-04-13T05:44:21.749Z,6.50
2018-04-13T05:45:21.956Z,5.70
2018-04-13T05:46:24.038Z,6.00
2018-04-13T05:47:22.385Z,8.10
2018-04-13T05:48:22.590Z,6.50
2018-04-13T05:49:26.539Z,7.10
2018-04-13T05:50:23.004Z,6.70
2018-04-13T05:51:23.208Z,7.30
2018-04-13T05:52:23.423Z,5.70
2018-04-13T05:53:25.565Z,6.40
2018-04-13T05:54:23.754Z,7.00
2018-04-13T05:55:23.962Z,5.20
2018-04-13T05:56:26.041Z,7.30
2018-04-13T05:57:26.038Z,7.50
2018-04-13T05:58:26.052Z,5.80
2018-04-13T05:59:24.629Z,9.60
2018-04-13T06:00:24.852Z,12.70
2018-04-13T06:01:25.076Z,17.70
2018-04-13T06:02:25.267Z,14.10
2018-04-13T06:03:25.472Z,15.40
2018-04-13T06:04:25.709Z,16.40
2018-04-13T06:05:25.904Z,20.10
2018-04-13T06:06:28.057Z,17.20
2018-04-13T06:07:26.266Z,14.20
2018-04-13T06:08:26.489Z,11.90
2018-04-13T06:09:26.702Z,7.80
2018-04-13T06:10:26.922Z,6.20
2018-04-13T06:11:27.134Z,6.10
2018-04-13T06:12:27.342Z,5.20
2018-04-13T06:13:27.565Z,6.50
2018-04-13T06:14:27.775Z,6.20
2018-04-13T06:15:27.990Z,7.10
2018-04-13T06:16:28.198Z,5.30
2018-04-13T06:17:28.425Z,6.70
2018-04-13T06:18:28.634Z,6.10
2018-04-13T06:19:30.549Z,8.80
2018-04-13T06:20:29.012Z,6.90
2018-04-13T06:21:29.210Z,11.40
2018-04-13T06:22:31.054Z,9.00
2018-04-13T06:23:29.674Z,9.00
2018-04-13T06:24:29.899Z,7.40
2018-04-13T06:25:30.067Z,9.50
2018-04-13T06:26:30.268Z,10.50
2018-04-13T06:27:30.488Z,9.90
2018-04-13T06:28:30.687Z,9.60
2018-04-13T06:29:30.936Z,8.60
2018-04-13T06:30:35.038Z,8.40
2018-04-13T06:31:31.250Z,8.30
2018-04-13T06:32:31.479Z,9.70
2018-04-13T06:33:33.538Z,7.20
2018-04-13T06:34:31.889Z,8.60
2018-04-13T06:35:32.101Z,7.00
2018-04-13T06:36:32.309Z,8.60
2018-04-13T06:37:32.528Z,12.10
2018-04-13T06:38:32.744Z,10.10
2018-04-13T06:39:32.957Z,10.40
2018-04-13T06:40:33.157Z,10.20
2018-04-13T06:41:33.379Z,12.20
2018-04-13T06:42:33.625Z,14.60
2018-04-13T06:43:35.560Z,11.70
2018-04-13T06:44:34.024Z,11.70
2018-04-13T06:45:34.234Z,12.10
2018-04-13T06:46:34.459Z,10.70
2018-04-13T06:47:36.581Z,14.10
2018-04-13T06:48:36.214Z,14.60
2018-04-13T06:49:35.060Z,15.30
2018-04-13T06:50:35.264Z,14.60
2018-04-13T06:51:37.039Z,12.40
2018-04-13T06:52:35.624Z,13.70
2018-04-13T06:53:35.830Z,12.90
2018-04-13T06:54:36.064Z,11.90
2018-04-13T06:55:36.282Z,11.20
2018-04-13T06:56:36.502Z,11.10
2018-04-13T06:57:36.715Z,12.80
2018-04-13T06:58:36.926Z,11.20
2018-04-13T06:59:37.150Z,11.10
2018-04-13T07:00:37.359Z,10.80
2018-04-13T07:01:37.569Z,12.40
2018-04-13T07:02:37.788Z,11.40
2018-04-13T07:03:39.544Z,11.40
2018-04-13T07:04:38.126Z,11.20
2018-04-13T07:05:38.361Z,12.80
2018-04-13T07:06:40.039Z,10.80
2018-04-13T07:07:38.754Z,12.20
2018-04-13T07:08:38.983Z,14.30
2018-04-13T07:09:39.190Z,14.40
2018-04-13T07:10:39.399Z,12.10
2018-04-13T07:11:39.619Z,11.20
2018-04-13T07:12:39.832Z,12.60
2018-04-13T07:13:40.083Z,12.70
2018-04-13T07:14:40.285Z,13.20
2018-04-13T07:15:40.502Z,13.90
2018-04-13T07:16:40.728Z,11.40
2018-04-13T07:17:40.933Z,12.90
2018-04-13T07:18:41.141Z,12.80
2018-04-13T07:19:43.049Z,10.60
2018-04-13T07:20:41.519Z,11.40
2018-04-13T07:21:41.727Z,10.40
2018-04-13T07:22:41.933Z,12.30
2018-04-13T07:23:42.141Z,9.20
2018-04-13T07:24:42.355Z,11.70
2018-04-13T07:25:42.565Z,10.50
2018-04-13T07:26:42.812Z,9.30
2018-04-13T07:27:42.990Z,11.10
2018-04-13T07:28:43.198Z,10.40
2018-04-13T07:29:43.430Z,10.50
2018-04-13T07:30:43.625Z,11.50
2018-04-13T07:31:43.833Z,10.60
2018-04-13T07:32:44.189Z,10.50
2018-04-13T07:33:46.054Z,9.20
2018-04-13T07:34:44.392Z,9.60
2018-04-13T07:35:44.610Z,10.00
2018-04-13T07:36:44.822Z,11.50
2018-04-13T07:37:46.541Z,11.60
2018-04-13T07:38:45.256Z,11.90
2018-04-13T07:39:45.460Z,12.40
2018-04-13T07:40:45.948Z,10.50
2018-04-13T07:41:47.641Z,11.20
2018-04-13T07:42:46.765Z,11.30
2018-04-13T07:43:46.349Z,10.60
2018-04-13T07:44:46.596Z,11.40
2018-04-13T07:45:46.777Z,10.90
2018-04-13T07:46:46.983Z,10.60
2018-04-13T07:47:47.193Z,10.10
2018-04-13T07:48:47.419Z,11.60
2018-04-13T07:49:47.620Z,9.70
2018-04-13T07:50:47.832Z,9.80
2018-04-13T07:51:48.053Z,12.50
2018-04-13T07:52:48.262Z,12.20
2018-04-13T07:53:48.485Z,10.90
2018-04-13T07:54:48.704Z,9.60
2018-04-13T07:55:48.924Z,10.20
2018-04-13T07:56:49.141Z,8.70
2018-04-13T07:57:49.359Z,8.30
2018-04-13T07:58:49.566Z,9.70
2018-04-13T07:59:49.785Z,9.80
2018-04-13T08:00:50.502Z,10.60
2018-04-13T08:01:52.398Z,8.70
2018-04-13T08:02:50.903Z,9.90
2018-04-13T08:03:50.625Z,9.60
2018-04-13T08:04:52.551Z,9.00
2018-04-13T08:05:51.022Z,8.50
2018-04-13T08:06:51.223Z,9.40
2018-04-13T08:07:51.461Z,8.60
2018-04-13T08:08:51.677Z,8.70
2018-04-13T08:09:51.938Z,10.10
2018-04-13T08:10:52.107Z,8.00
2018-04-13T08:11:52.325Z,8.70
2018-04-13T08:12:52.539Z,9.00
2018-04-13T08:13:56.552Z,8.50
2018-04-13T08:14:52.891Z,12.20
2018-04-13T08:15:53.112Z,12.10
2018-04-13T08:16:53.329Z,12.80
2018-04-13T08:17:53.526Z,10.50
2018-04-13T08:18:53.744Z,10.30
2018-04-13T08:19:53.963Z,11.80
2018-04-13T08:20:54.183Z,15.30
2018-04-13T08:21:56.069Z,12.20
2018-04-13T08:22:54.629Z,10.10
2018-04-13T08:23:54.850Z,10.90
2018-04-13T08:24:57.055Z,8.40
2018-04-13T08:25:55.268Z,8.70
2018-04-13T08:26:55.468Z,8.10
2018-04-13T08:27:55.687Z,8.80
2018-04-13T08:28:57.553Z,9.00
2018-04-13T08:29:56.004Z,9.60
2018-04-13T08:30:56.217Z,8.90
2018-04-13T08:31:56.438Z,10.80
2018-04-13T08:32:56.660Z,11.00
2018-04-13T08:33:56.874Z,10.30
2018-04-13T08:34:57.100Z,10.70
2018-04-13T08:35:59.043Z,11.60
2018-04-13T08:36:57.501Z,13.40
2018-04-13T08:37:57.710Z,14.00
2018-04-13T08:38:57.938Z,10.60
2018-04-13T08:39:58.188Z,12.90
2018-04-13T08:40:58.386Z,11.80
2018-04-13T08:41:58.591Z,12.00
2018-04-13T08:43:00.550Z,12.20
2018-04-13T08:43:59.016Z,11.30
2018-04-13T08:44:59.225Z,14.70
2018-04-13T08:46:01.042Z,13.80
2018-04-13T08:46:59.629Z,14.50
2018-04-13T08:47:59.851Z,14.80
2018-04-13T08:49:00.120Z,15.70
2018-04-13T08:50:03.070Z,13.70
2018-04-13T08:51:00.409Z,13.20
2018-04-13T08:52:00.625Z,13.60
2018-04-13T08:53:02.618Z,14.00
2018-04-13T08:54:01.008Z,14.40
2018-04-13T08:55:01.226Z,14.50
2018-04-13T08:56:01.438Z,14.20
2018-04-13T08:57:01.670Z,14.30
2018-04-13T08:58:01.904Z,13.70
2018-04-13T08:59:02.080Z,15.10
2018-04-13T09:00:02.287Z,14.30
2018-04-13T09:01:02.539Z,14.60
2018-04-13T09:02:04.546Z,14.70
2018-04-13T09:03:02.889Z,15.00
2018-04-13T09:04:03.110Z,14.70
2018-04-13T09:05:03.347Z,14.80
2018-04-13T09:06:03.532Z,14.50
2018-04-13T09:07:03.740Z,15.40
2018-04-13T09:08:03.954Z,14.90
2018-04-13T09:09:04.168Z,14.60
2018-04-13T09:10:04.381Z,16.00
2018-04-13T09:11:04.587Z,15.70
2018-04-13T09:12:04.825Z,14.40
2018-04-13T09:13:05.022Z,15.80
2018-04-13T09:14:05.218Z,15.10
2018-04-13T09:15:05.435Z,15.40
2018-04-13T09:16:05.649Z,15.60
2018-04-13T09:17:05.861Z,16.50
2018-04-13T09:18:06.086Z,16.10
2018-04-13T09:19:10.048Z,17.60
2018-04-13T09:20:06.529Z,15.70
2018-04-13T09:21:06.728Z,13.60
2018-04-13T09:22:06.940Z,12.60
2018-04-13T09:23:07.154Z,11.70
2018-04-13T09:24:07.363Z,14.80
2018-04-13T09:25:07.597Z,14.20
2018-04-13T09:26:07.843Z,12.60
2018-04-13T09:27:09.548Z,12.30
2018-04-13T09:28:08.234Z,12.00
2018-04-13T09:29:08.331Z,12.30
2018-04-13T09:30:10.046Z,11.60
2018-04-13T09:31:10.557Z,12.00
2018-04-13T09:32:08.898Z,12.50
2018-04-13T09:33:11.050Z,12.40
2018-04-13T09:34:09.252Z,12.10
2018-04-13T09:35:09.499Z,14.20
2018-04-13T09:36:09.678Z,12.90
2018-04-13T09:37:09.893Z,13.00
2018-04-13T09:38:10.103Z,15.50
2018-04-13T09:39:10.334Z,14.70
2018-04-13T09:40:10.534Z,14.70
2018-04-13T09:41:10.758Z,16.00
2018-04-13T09:42:12.548Z,13.90
2018-04-13T09:43:11.178Z,18.30
2018-04-13T09:44:11.362Z,15.90
2018-04-13T09:45:11.573Z,15.20
2018-04-13T09:46:11.842Z,17.60
2018-04-13T09:47:12.010Z,28.40
2018-04-13T09:48:14.053Z,30.50
2018-04-13T09:49:12.401Z,36.30
2018-04-13T09:50:12.623Z,33.30
2018-04-13T09:51:12.839Z,41.90
2018-04-13T09:52:13.067Z,42.30
2018-04-13T09:53:13.281Z,41.60
2018-04-13T09:54:13.494Z,43.90
2018-04-13T09:55:13.704Z,42.20
2018-04-13T09:56:13.920Z,44.10
2018-04-13T09:57:14.150Z,41.30
2018-04-13T09:58:14.361Z,42.40
2018-04-13T09:59:14.584Z,44.00
2018-04-13T10:00:14.805Z,43.80
2018-04-13T10:01:15.024Z,42.40
2018-04-13T10:02:15.288Z,46.20
2018-04-13T10:03:15.482Z,45.10
2018-04-13T10:04:17.550Z,44.30
2018-04-13T10:05:15.915Z,46.80
2018-04-13T10:06:18.058Z,52.60
2018-04-13T10:07:16.259Z,46.10
2018-04-13T10:08:16.484Z,45.00
2018-04-13T10:09:16.707Z,49.80
2018-04-13T10:10:16.948Z,47.10
2018-04-13T10:11:17.141Z,46.80
2018-04-13T10:12:17.348Z,46.10
2018-04-13T10:13:17.565Z,45.60
2018-04-13T10:14:17.783Z,46.60
2018-04-13T10:15:17.991Z,46.10
2018-04-13T10:16:18.206Z,47.40
2018-04-13T10:17:18.427Z,46.50
2018-04-13T10:18:18.645Z,47.50
2018-04-13T10:19:18.866Z,45.80
2018-04-13T10:20:19.095Z,45.50
2018-04-13T10:21:19.346Z,48.20
2018-04-13T10:22:19.518Z,47.20
2018-04-13T10:23:19.730Z,49.30
2018-04-13T10:24:19.951Z,50.50
2018-04-13T10:25:20.165Z,49.70
2018-04-13T10:26:20.370Z,48.40
2018-04-13T10:27:22.560Z,49.00
2018-04-13T10:28:20.781Z,48.20
2018-04-13T10:29:20.998Z,47.00
2018-04-13T10:30:24.061Z,50.30
2018-04-13T10:31:21.402Z,49.60
2018-04-13T10:32:21.625Z,47.40
2018-04-13T10:33:21.834Z,47.40
2018-04-13T10:34:22.048Z,47.50
2018-04-13T10:35:22.268Z,47.00
2018-04-13T10:36:22.476Z,47.00
2018-04-13T10:37:24.558Z,46.00
2018-04-13T10:38:22.896Z,47.50
2018-04-13T10:39:25.054Z,48.60
2018-04-13T10:40:23.278Z,48.50
2018-04-13T10:41:23.488Z,46.40
2018-04-13T10:42:23.703Z,49.00
2018-04-13T10:43:26.561Z,49.00
2018-04-13T10:44:24.158Z,49.00
2018-04-13T10:45:24.374Z,49.60
2018-04-13T10:46:27.554Z,46.30
2018-04-13T10:47:24.757Z,42.90
2018-04-13T10:48:25.004Z,43.70
2018-04-13T10:49:25.204Z,41.80
2018-04-13T10:50:25.401Z,40.60
2018-04-13T10:51:27.550Z,41.20
2018-04-13T10:52:27.551Z,40.60
2018-04-13T10:53:25.894Z,35.60
2018-04-13T10:54:26.121Z,36.80
2018-04-13T10:55:28.053Z,37.30
2018-04-13T10:56:26.520Z,38.10
2018-04-13T10:57:28.548Z,38.10
2018-04-13T10:58:26.884Z,37.50
2018-04-13T10:59:27.102Z,34.10
2018-04-13T11:00:27.317Z,33.40
2018-04-13T11:01:27.529Z,33.40
2018-04-13T11:02:29.556Z,34.00
2018-04-13T11:03:27.889Z,30.90
2018-04-13T11:04:28.100Z,30.60
2018-04-13T11:05:28.318Z,31.60
2018-04-13T11:06:28.547Z,33.40
2018-04-13T11:07:28.739Z,32.50
2018-04-13T11:08:28.966Z,31.70
2018-04-13T11:09:29.163Z,31.40
2018-04-13T11:10:29.385Z,30.80
2018-04-13T11:11:29.596Z,31.30
2018-04-13T11:12:29.815Z,31.60
2018-04-13T11:13:30.030Z,32.30
2018-04-13T11:14:30.252Z,32.30
2018-04-13T11:15:30.469Z,30.90
2018-04-13T11:16:30.693Z,31.90
2018-04-13T11:17:30.895Z,32.00
2018-04-13T11:18:31.111Z,33.40
2018-04-13T11:19:33.053Z,33.10
2018-04-13T11:20:31.522Z,34.00
2018-04-13T11:21:31.745Z,36.00
2018-04-13T11:22:31.957Z,36.20
2018-04-13T11:23:32.162Z,36.30
2018-04-13T11:24:32.376Z,37.20
2018-04-13T11:25:32.584Z,36.10
2018-04-13T11:26:32.804Z,38.00
2018-04-13T11:27:33.021Z,39.40
2018-04-13T11:28:35.065Z,39.00
2018-04-13T11:29:33.401Z,38.00
2018-04-13T11:30:36.567Z,38.90
2018-04-13T11:31:33.772Z,40.00
2018-04-13T11:32:33.989Z,38.90
2018-04-13T11:33:34.214Z,38.00
2018-04-13T11:34:34.412Z,38.80
2018-04-13T11:35:34.632Z,37.20
2018-04-13T11:36:34.844Z,36.50
2018-04-13T11:37:35.050Z,41.00
2018-04-13T11:38:35.254Z,36.40
2018-04-13T11:39:35.480Z,36.50
2018-04-13T11:40:35.691Z,35.70
2018-04-13T11:41:35.923Z,36.70
2018-04-13T11:42:36.142Z,34.30
2018-04-13T11:43:38.056Z,36.80
2018-04-13T11:44:36.513Z,36.70
2018-04-13T11:45:36.728Z,35.80
2018-04-13T11:46:36.946Z,34.90
2018-04-13T11:47:39.050Z,37.20
2018-04-13T11:48:37.401Z,38.50
2018-04-13T11:49:37.625Z,38.40
2018-04-13T11:50:37.844Z,36.80
2018-04-13T11:51:39.576Z,36.80
2018-04-13T11:52:38.270Z,39.90
2018-04-13T11:53:38.489Z,37.90
2018-04-13T11:54:38.717Z,41.90
2018-04-13T11:55:38.929Z,41.80
2018-04-13T11:56:39.153Z,42.10
2018-04-13T11:57:39.370Z,43.30
2018-04-13T11:58:39.576Z,43.30
2018-04-13T11:59:39.816Z,45.70
2018-04-13T12:00:40.007Z,44.80
2018-04-13T12:01:40.232Z,45.80
2018-04-13T12:02:42.056Z,46.00
2018-04-13T12:03:40.643Z,46.70
2018-04-13T12:04:40.852Z,48.10
2018-04-13T12:05:41.072Z,45.00
2018-04-13T12:06:41.292Z,46.40
2018-04-13T12:07:41.514Z,46.20
2018-04-13T12:08:43.559Z,49.30
2018-04-13T12:09:41.895Z,50.10
2018-04-13T12:10:42.117Z,51.90
2018-04-13T12:11:42.335Z,50.60
2018-04-13T12:12:42.543Z,52.10
2018-04-13T12:13:42.768Z,49.40
2018-04-13T12:14:42.967Z,52.00
2018-04-13T12:15:43.210Z,51.90
2018-04-13T12:16:43.396Z,53.30
2018-04-13T12:17:43.612Z,52.10
2018-04-13T12:18:43.835Z,50.70
2018-04-13T12:19:44.077Z,52.20
2018-04-13T12:20:44.283Z,54.80
2018-04-13T12:21:44.502Z,53.70
2018-04-13T12:22:44.719Z,55.70
2018-04-13T12:23:44.928Z,57.60
2018-04-13T12:24:45.147Z,58.70
2018-04-13T12:25:45.377Z,63.60
2018-04-13T12:26:47.569Z,56.50
2018-04-13T12:27:45.795Z,56.80
2018-04-13T12:28:45.993Z,56.10
2018-04-13T12:29:46.214Z,59.60
2018-04-13T12:30:48.121Z,63.50
2018-04-13T12:31:46.562Z,60.00
2018-04-13T12:32:46.781Z,58.20
2018-04-13T12:33:58.611Z,57.50
2018-04-13T12:34:49.081Z,60.40
2018-04-13T12:35:49.055Z,62.80
2018-04-13T12:36:47.512Z,56.60
2018-04-13T12:37:48.748Z,52.90
2018-04-13T12:38:51.568Z,53.10
2018-04-13T12:39:50.078Z,53.40
2018-04-13T12:41:25.120Z,55.90
2018-04-13T12:41:50.021Z,51.40
2018-04-13T12:43:17.623Z,50.60
2018-04-13T12:48:47.265Z,49.70
2018-04-13T12:51:31.359Z,50.40
2018-04-13T12:52:38.919Z,57.70
2018-04-13T12:53:15.321Z,56.60
2018-04-13T12:54:38.212Z,57.50
2018-04-13T12:55:35.764Z,59.20
2018-04-13T12:56:37.874Z,60.60
2018-04-13T12:57:16.347Z,61.50
2018-04-13T12:58:38.842Z,54.40
2018-04-13T12:59:16.469Z,59.50
2018-04-13T13:00:20.805Z,62.10
2018-04-13T13:01:39.801Z,65.70
2018-04-13T13:02:17.520Z,71.00
2018-04-13T13:03:23.851Z,68.80
2018-04-13T13:05:51.961Z,63.10
2018-04-13T13:08:51.460Z,67.90
2018-04-13T13:09:23.898Z,69.80
2018-04-13T13:10:20.851Z,66.30
2018-04-13T13:11:23.469Z,55.50
2018-04-13T13:12:24.858Z,56.10
2018-04-13T13:13:27.157Z,61.20
2018-04-13T13:14:23.021Z,60.10
2018-04-13T13:15:21.494Z,66.10
2018-04-13T13:16:22.624Z,65.30